sensor_id;sensor_type;location;lat;lon;timestamp;temperature;humidity
63966;DHT22;50151;52.030;5.350;2022-12-07T00:03:32;3.70;99.90
63966;DHT22;50151;52.030;5.350;2022-12-07T00:06:00;3.60;99.90
63966;DHT22;50151;52.030;5.350;2022-12-07T00:08:27;3.70;99.90
63966;DHT22;50151;52.030;5.350;2022-12-07T00:10:54;3.70;99.90
63966;DHT22;50151;52.030;5.350;2022-12-07T00:13:20;3.70;99.90
63966;DHT22;50151;52.030;5.350;2022-12-07T00:15:47;3.70;99.90
63966;DHT22;50151;52.030;5.350;2022-12-07T00:18:14;3.70;99.90
63966;DHT22;50151;52.030;5.350;2022-12-07T00:20:40;3.70;99.90
63966;DHT22;50151;52.030;5.350;2022-12-07T00:23:07;3.60;99.90
63966;DHT22;50151;52.030;5.350;2022-12-07T00:25:34;3.60;99.90
63966;DHT22;50151;52.030;5.350;2022-12-07T00:28:00;3.60;99.90
63966;DHT22;50151;52.030;5.350;2022-12-07T00:30:27;3.60;99.90
63966;DHT22;50151;52.030;5.350;2022-12-07T00:32:54;3.60;99.90
63966;DHT22;50151;52.030;5.350;2022-12-07T00:35:20;3.60;99.90
63966;DHT22;50151;52.030;5.350;2022-12-07T00:37:47;3.60;99.90
63966;DHT22;50151;52.030;5.350;2022-12-07T00:40:14;3.60;99.90
63966;DHT22;50151;52.030;5.350;2022-12-07T00:42:41;3.50;99.90
63966;DHT22;50151;52.030;5.350;2022-12-07T00:45:08;3.50;99.90
63966;DHT22;50151;52.030;5.350;2022-12-07T00:47:35;3.40;99.90
63966;DHT22;50151;52.030;5.350;2022-12-07T00:50:01;3.40;99.90
63966;DHT22;50151;52.030;5.350;2022-12-07T00:52:29;3.40;99.90
63966;DHT22;50151;52.030;5.350;2022-12-07T00:54:56;3.40;99.90
63966;DHT22;50151;52.030;5.350;2022-12-07T00:57:22;3.30;99.90
63966;DHT22;50151;52.030;5.350;2022-12-07T00:59:49;3.30;99.90
63966;DHT22;50151;52.030;5.350;2022-12-07T01:02:16;3.20;99.90
63966;DHT22;50151;52.030;5.350;2022-12-07T01:04:43;3.20;99.90
63966;DHT22;50151;52.030;5.350;2022-12-07T01:07:09;3.20;99.90
63966;DHT22;50151;52.030;5.350;2022-12-07T01:09:36;3.10;99.90
63966;DHT22;50151;52.030;5.350;2022-12-07T01:12:03;3.10;99.90
63966;DHT22;50151;52.030;5.350;2022-12-07T01:14:30;3.00;99.90
63966;DHT22;50151;52.030;5.350;2022-12-07T01:16:56;3.00;99.90
63966;DHT22;50151;52.030;5.350;2022-12-07T01:19:23;3.00;99.90
63966;DHT22;50151;52.030;5.350;2022-12-07T01:21:50;2.90;99.90
63966;DHT22;50151;52.030;5.350;2022-12-07T01:24:16;2.90;99.90
63966;DHT22;50151;52.030;5.350;2022-12-07T01:26:43;2.90;99.90
63966;DHT22;50151;52.030;5.350;2022-12-07T01:29:10;2.80;99.90
63966;DHT22;50151;52.030;5.350;2022-12-07T01:31:36;2.80;99.90
63966;DHT22;50151;52.030;5.350;2022-12-07T01:34:03;2.80;99.90
63966;DHT22;50151;52.030;5.350;2022-12-07T01:36:32;2.80;99.90
63966;DHT22;50151;52.030;5.350;2022-12-07T01:39:03;2.70;99.90
63966;DHT22;50151;52.030;5.350;2022-12-07T01:41:32;2.70;99.90
63966;DHT22;50151;52.030;5.350;2022-12-07T01:47:07;2.60;99.90
63966;DHT22;50151;52.030;5.350;2022-12-07T01:49:38;2.60;99.90
63966;DHT22;50151;52.030;5.350;2022-12-07T01:52:26;2.50;99.90
63966;DHT22;50151;52.030;5.350;2022-12-07T01:55:00;2.50;99.90
63966;DHT22;50151;52.030;5.350;2022-12-07T01:57:28;2.50;99.90
63966;DHT22;50151;52.030;5.350;2022-12-07T01:59:55;2.40;99.90
63966;DHT22;50151;52.030;5.350;2022-12-07T02:02:27;2.40;99.90
63966;DHT22;50151;52.030;5.350;2022-12-07T02:04:55;2.40;99.90
63966;DHT22;50151;52.030;5.350;2022-12-07T02:07:23;2.30;99.90
63966;DHT22;50151;52.030;5.350;2022-12-07T02:09:51;2.30;99.90
63966;DHT22;50151;52.030;5.350;2022-12-07T02:12:19;2.30;99.90
63966;DHT22;50151;52.030;5.350;2022-12-07T02:14:46;2.20;99.90
63966;DHT22;50151;52.030;5.350;2022-12-07T02:17:21;2.20;99.90
63966;DHT22;50151;52.030;5.350;2022-12-07T02:23:17;2.20;99.90
63966;DHT22;50151;52.030;5.350;2022-12-07T02:31:32;2.10;99.90
63966;DHT22;50151;52.030;5.350;2022-12-07T02:34:09;2.10;99.90
63966;DHT22;50151;52.030;5.350;2022-12-07T02:36:49;2.20;99.90
63966;DHT22;50151;52.030;5.350;2022-12-07T02:39:41;2.20;99.90
63966;DHT22;50151;52.030;5.350;2022-12-07T02:42:17;2.10;99.90
63966;DHT22;50151;52.030;5.350;2022-12-07T02:44:45;2.20;99.90
63966;DHT22;50151;52.030;5.350;2022-12-07T02:47:15;2.20;99.90
63966;DHT22;50151;52.030;5.350;2022-12-07T02:49:43;2.30;99.90
63966;DHT22;50151;52.030;5.350;2022-12-07T02:52:09;2.40;99.90
63966;DHT22;50151;52.030;5.350;2022-12-07T02:54:36;2.30;99.90
63966;DHT22;50151;52.030;5.350;2022-12-07T03:00:09;2.40;99.90
63966;DHT22;50151;52.030;5.350;2022-12-07T03:02:46;2.40;99.90
63966;DHT22;50151;52.030;5.350;2022-12-07T03:11:00;2.40;99.90
63966;DHT22;50151;52.030;5.350;2022-12-07T03:13:35;2.40;99.90
63966;DHT22;50151;52.030;5.350;2022-12-07T03:16:14;2.30;99.90
63966;DHT22;50151;52.030;5.350;2022-12-07T03:18:52;2.30;99.90
63966;DHT22;50151;52.030;5.350;2022-12-07T03:21:24;2.30;99.90
63966;DHT22;50151;52.030;5.350;2022-12-07T03:23:59;2.30;99.90
63966;DHT22;50151;52.030;5.350;2022-12-07T03:26:41;2.30;99.90
63966;DHT22;50151;52.030;5.350;2022-12-07T03:29:14;2.40;99.90
63966;DHT22;50151;52.030;5.350;2022-12-07T03:31:47;2.40;99.90
63966;DHT22;50151;52.030;5.350;2022-12-07T03:34:32;2.40;99.90
63966;DHT22;50151;52.030;5.350;2022-12-07T03:37:04;2.40;99.90
63966;DHT22;50151;52.030;5.350;2022-12-07T03:39:56;2.40;99.90
63966;DHT22;50151;52.030;5.350;2022-12-07T03:42:24;2.40;99.90
63966;DHT22;50151;52.030;5.350;2022-12-07T03:44:51;2.40;99.90
63966;DHT22;50151;52.030;5.350;2022-12-07T03:50:00;2.50;99.90
63966;DHT22;50151;52.030;5.350;2022-12-07T03:52:36;2.40;99.90
63966;DHT22;50151;52.030;5.350;2022-12-07T03:57:31;2.40;99.90
63966;DHT22;50151;52.030;5.350;2022-12-07T03:59:59;2.40;99.90
63966;DHT22;50151;52.030;5.350;2022-12-07T04:02:28;2.40;99.90
63966;DHT22;50151;52.030;5.350;2022-12-07T04:04:56;2.40;99.90
63966;DHT22;50151;52.030;5.350;2022-12-07T04:07:22;2.40;99.90
63966;DHT22;50151;52.030;5.350;2022-12-07T04:09:49;2.40;99.90
63966;DHT22;50151;52.030;5.350;2022-12-07T04:12:16;2.40;99.90
63966;DHT22;50151;52.030;5.350;2022-12-07T04:14:42;2.40;99.90
63966;DHT22;50151;52.030;5.350;2022-12-07T04:17:09;2.30;99.90
63966;DHT22;50151;52.030;5.350;2022-12-07T04:19:36;2.40;99.90
63966;DHT22;50151;52.030;5.350;2022-12-07T04:22:04;2.40;99.90
63966;DHT22;50151;52.030;5.350;2022-12-07T04:24:31;2.40;99.90
63966;DHT22;50151;52.030;5.350;2022-12-07T04:26:58;2.40;99.90
63966;DHT22;50151;52.030;5.350;2022-12-07T04:29:25;2.40;99.90
63966;DHT22;50151;52.030;5.350;2022-12-07T04:31:52;2.30;99.90
63966;DHT22;50151;52.030;5.350;2022-12-07T04:34:19;2.30;99.90
63966;DHT22;50151;52.030;5.350;2022-12-07T04:36:46;2.30;99.90
63966;DHT22;50151;52.030;5.350;2022-12-07T04:39:27;2.20;99.90
63966;DHT22;50151;52.030;5.350;2022-12-07T04:41:55;2.20;99.90
63966;DHT22;50151;52.030;5.350;2022-12-07T04:44:23;2.20;99.90
63966;DHT22;50151;52.030;5.350;2022-12-07T04:46:51;2.20;99.90
63966;DHT22;50151;52.030;5.350;2022-12-07T04:49:18;2.10;99.90
63966;DHT22;50151;52.030;5.350;2022-12-07T04:51:46;2.10;99.90
63966;DHT22;50151;52.030;5.350;2022-12-07T04:54:14;2.10;99.90
63966;DHT22;50151;52.030;5.350;2022-12-07T04:56:42;2.10;99.90
63966;DHT22;50151;52.030;5.350;2022-12-07T04:59:13;2.10;99.90
63966;DHT22;50151;52.030;5.350;2022-12-07T05:01:40;2.10;99.90
63966;DHT22;50151;52.030;5.350;2022-12-07T05:04:08;2.20;99.90
63966;DHT22;50151;52.030;5.350;2022-12-07T05:06:34;2.30;99.90
63966;DHT22;50151;52.030;5.350;2022-12-07T05:09:02;2.40;99.90
63966;DHT22;50151;52.030;5.350;2022-12-07T05:11:29;2.40;99.90
63966;DHT22;50151;52.030;5.350;2022-12-07T05:14:10;2.40;99.90
63966;DHT22;50151;52.030;5.350;2022-12-07T05:16:38;2.40;99.90
63966;DHT22;50151;52.030;5.350;2022-12-07T05:19:06;2.40;99.90
63966;DHT22;50151;52.030;5.350;2022-12-07T05:21:33;2.40;99.90
63966;DHT22;50151;52.030;5.350;2022-12-07T05:24:00;2.30;99.90
63966;DHT22;50151;52.030;5.350;2022-12-07T05:26:27;2.30;99.90
63966;DHT22;50151;52.030;5.350;2022-12-07T05:28:55;2.40;99.90
63966;DHT22;50151;52.030;5.350;2022-12-07T05:31:23;2.30;99.90
63966;DHT22;50151;52.030;5.350;2022-12-07T05:33:50;2.30;99.90
63966;DHT22;50151;52.030;5.350;2022-12-07T05:36:17;2.30;99.90
63966;DHT22;50151;52.030;5.350;2022-12-07T05:38:44;2.30;99.90
63966;DHT22;50151;52.030;5.350;2022-12-07T05:41:14;2.20;99.90
63966;DHT22;50151;52.030;5.350;2022-12-07T05:44:00;2.30;99.90
63966;DHT22;50151;52.030;5.350;2022-12-07T05:46:27;2.30;99.90
63966;DHT22;50151;52.030;5.350;2022-12-07T05:48:53;2.30;99.90
63966;DHT22;50151;52.030;5.350;2022-12-07T05:51:20;2.20;99.90
63966;DHT22;50151;52.030;5.350;2022-12-07T05:53:47;2.20;99.90
63966;DHT22;50151;52.030;5.350;2022-12-07T05:56:13;2.20;99.90
63966;DHT22;50151;52.030;5.350;2022-12-07T05:58:40;2.10;99.90
63966;DHT22;50151;52.030;5.350;2022-12-07T06:01:26;2.10;99.90
63966;DHT22;50151;52.030;5.350;2022-12-07T06:03:52;2.10;99.90
63966;DHT22;50151;52.030;5.350;2022-12-07T06:06:19;2.10;99.90
63966;DHT22;50151;52.030;5.350;2022-12-07T06:08:46;2.10;99.90
63966;DHT22;50151;52.030;5.350;2022-12-07T06:11:13;2.10;99.90
63966;DHT22;50151;52.030;5.350;2022-12-07T06:14:00;2.00;99.90
63966;DHT22;50151;52.030;5.350;2022-12-07T06:16:26;2.00;99.90
63966;DHT22;50151;52.030;5.350;2022-12-07T06:18:53;2.00;99.90
63966;DHT22;50151;52.030;5.350;2022-12-07T06:21:20;2.00;99.90
63966;DHT22;50151;52.030;5.350;2022-12-07T06:23:47;2.00;99.90
63966;DHT22;50151;52.030;5.350;2022-12-07T06:26:14;2.00;99.90
63966;DHT22;50151;52.030;5.350;2022-12-07T06:28:41;2.00;99.90
63966;DHT22;50151;52.030;5.350;2022-12-07T06:31:08;1.90;99.90
63966;DHT22;50151;52.030;5.350;2022-12-07T06:33:40;1.90;99.90
63966;DHT22;50151;52.030;5.350;2022-12-07T06:36:07;1.90;99.90
63966;DHT22;50151;52.030;5.350;2022-12-07T06:38:34;1.90;99.90
63966;DHT22;50151;52.030;5.350;2022-12-07T06:41:02;1.90;99.90
63966;DHT22;50151;52.030;5.350;2022-12-07T06:43:29;1.90;99.90
63966;DHT22;50151;52.030;5.350;2022-12-07T06:45:56;1.90;99.90
63966;DHT22;50151;52.030;5.350;2022-12-07T06:48:25;1.90;99.90
63966;DHT22;50151;52.030;5.350;2022-12-07T06:50:52;1.90;99.90
63966;DHT22;50151;52.030;5.350;2022-12-07T06:53:21;1.90;99.90
63966;DHT22;50151;52.030;5.350;2022-12-07T06:55:48;1.90;99.90
63966;DHT22;50151;52.030;5.350;2022-12-07T06:58:15;1.80;99.90
63966;DHT22;50151;52.030;5.350;2022-12-07T07:00:42;1.80;99.90
63966;DHT22;50151;52.030;5.350;2022-12-07T07:03:09;1.80;99.90
63966;DHT22;50151;52.030;5.350;2022-12-07T07:05:36;1.80;99.90
63966;DHT22;50151;52.030;5.350;2022-12-07T07:08:03;1.80;99.90
63966;DHT22;50151;52.030;5.350;2022-12-07T07:10:47;1.80;99.90
63966;DHT22;50151;52.030;5.350;2022-12-07T07:13:14;1.80;99.90
63966;DHT22;50151;52.030;5.350;2022-12-07T07:15:41;1.80;99.90
63966;DHT22;50151;52.030;5.350;2022-12-07T07:18:08;1.80;99.90
63966;DHT22;50151;52.030;5.350;2022-12-07T07:20:34;1.80;99.90
63966;DHT22;50151;52.030;5.350;2022-12-07T07:23:01;1.80;99.90
63966;DHT22;50151;52.030;5.350;2022-12-07T07:25:28;1.80;99.90
63966;DHT22;50151;52.030;5.350;2022-12-07T07:27:55;1.70;99.90
63966;DHT22;50151;52.030;5.350;2022-12-07T07:30:22;1.70;99.90
63966;DHT22;50151;52.030;5.350;2022-12-07T07:32:49;1.70;99.90
63966;DHT22;50151;52.030;5.350;2022-12-07T07:35:15;1.70;99.90
63966;DHT22;50151;52.030;5.350;2022-12-07T07:37:42;1.70;99.90
63966;DHT22;50151;52.030;5.350;2022-12-07T07:40:09;1.70;99.90
63966;DHT22;50151;52.030;5.350;2022-12-07T07:42:36;1.70;99.90
63966;DHT22;50151;52.030;5.350;2022-12-07T07:45:03;1.70;99.90
63966;DHT22;50151;52.030;5.350;2022-12-07T07:47:31;1.70;99.90
63966;DHT22;50151;52.030;5.350;2022-12-07T07:49:58;1.60;99.90
63966;DHT22;50151;52.030;5.350;2022-12-07T07:52:24;1.60;99.90
63966;DHT22;50151;52.030;5.350;2022-12-07T07:54:51;1.60;99.90
63966;DHT22;50151;52.030;5.350;2022-12-07T07:57:18;1.60;99.90
63966;DHT22;50151;52.030;5.350;2022-12-07T07:59:45;1.60;99.90
63966;DHT22;50151;52.030;5.350;2022-12-07T08:02:19;1.50;99.90
63966;DHT22;50151;52.030;5.350;2022-12-07T08:04:46;1.50;99.90
63966;DHT22;50151;52.030;5.350;2022-12-07T08:07:14;1.50;99.90
63966;DHT22;50151;52.030;5.350;2022-12-07T08:09:41;1.50;99.90
63966;DHT22;50151;52.030;5.350;2022-12-07T08:12:07;1.50;99.90
63966;DHT22;50151;52.030;5.350;2022-12-07T08:14:34;1.50;99.90
63966;DHT22;50151;52.030;5.350;2022-12-07T08:17:01;1.50;99.90
63966;DHT22;50151;52.030;5.350;2022-12-07T08:19:28;1.40;99.90
63966;DHT22;50151;52.030;5.350;2022-12-07T08:21:55;1.50;99.90
63966;DHT22;50151;52.030;5.350;2022-12-07T08:24:22;1.40;99.90
63966;DHT22;50151;52.030;5.350;2022-12-07T08:26:49;1.40;99.90
63966;DHT22;50151;52.030;5.350;2022-12-07T08:29:17;1.40;99.90
63966;DHT22;50151;52.030;5.350;2022-12-07T08:31:43;1.40;99.90
63966;DHT22;50151;52.030;5.350;2022-12-07T08:34:11;1.50;99.90
63966;DHT22;50151;52.030;5.350;2022-12-07T08:36:38;1.50;99.90
63966;DHT22;50151;52.030;5.350;2022-12-07T08:39:05;1.60;99.90
63966;DHT22;50151;52.030;5.350;2022-12-07T08:41:52;1.60;99.90
63966;DHT22;50151;52.030;5.350;2022-12-07T08:44:18;1.80;99.90
63966;DHT22;50151;52.030;5.350;2022-12-07T08:46:57;1.90;99.90
63966;DHT22;50151;52.030;5.350;2022-12-07T08:49:30;2.00;99.90
63966;DHT22;50151;52.030;5.350;2022-12-07T08:51:58;2.10;99.90
63966;DHT22;50151;52.030;5.350;2022-12-07T08:54:25;2.30;99.90
63966;DHT22;50151;52.030;5.350;2022-12-07T08:56:53;2.50;99.90
63966;DHT22;50151;52.030;5.350;2022-12-07T08:59:26;2.50;99.90
63966;DHT22;50151;52.030;5.350;2022-12-07T09:01:53;2.60;99.90
63966;DHT22;50151;52.030;5.350;2022-12-07T09:04:20;2.60;99.90
63966;DHT22;50151;52.030;5.350;2022-12-07T09:06:47;2.60;99.90
63966;DHT22;50151;52.030;5.350;2022-12-07T09:09:14;2.70;99.90
63966;DHT22;50151;52.030;5.350;2022-12-07T09:11:41;2.70;99.90
63966;DHT22;50151;52.030;5.350;2022-12-07T09:14:08;2.70;99.90
63966;DHT22;50151;52.030;5.350;2022-12-07T09:16:34;2.70;99.90
63966;DHT22;50151;52.030;5.350;2022-12-07T09:19:01;2.80;99.90
63966;DHT22;50151;52.030;5.350;2022-12-07T09:21:28;2.90;99.90
63966;DHT22;50151;52.030;5.350;2022-12-07T09:23:55;3.00;99.90
63966;DHT22;50151;52.030;5.350;2022-12-07T09:26:22;3.00;99.90
63966;DHT22;50151;52.030;5.350;2022-12-07T09:28:48;3.00;99.90
63966;DHT22;50151;52.030;5.350;2022-12-07T09:31:15;3.10;99.90
63966;DHT22;50151;52.030;5.350;2022-12-07T09:33:59;3.20;99.90
63966;DHT22;50151;52.030;5.350;2022-12-07T09:36:27;3.20;99.90
63966;DHT22;50151;52.030;5.350;2022-12-07T09:38:54;3.30;99.90
63966;DHT22;50151;52.030;5.350;2022-12-07T09:41:21;3.30;99.90
63966;DHT22;50151;52.030;5.350;2022-12-07T09:43:49;3.40;99.90
63966;DHT22;50151;52.030;5.350;2022-12-07T09:46:19;3.50;99.90
63966;DHT22;50151;52.030;5.350;2022-12-07T09:48:47;3.50;99.90
63966;DHT22;50151;52.030;5.350;2022-12-07T09:51:19;3.50;99.90
63966;DHT22;50151;52.030;5.350;2022-12-07T09:53:52;3.60;99.90
63966;DHT22;50151;52.030;5.350;2022-12-07T09:56:19;3.60;99.90
63966;DHT22;50151;52.030;5.350;2022-12-07T09:58:48;3.60;99.90
63966;DHT22;50151;52.030;5.350;2022-12-07T10:01:18;3.70;99.90
63966;DHT22;50151;52.030;5.350;2022-12-07T10:03:53;3.80;99.90
63966;DHT22;50151;52.030;5.350;2022-12-07T10:06:19;3.90;99.90
63966;DHT22;50151;52.030;5.350;2022-12-07T10:08:47;3.90;99.90
63966;DHT22;50151;52.030;5.350;2022-12-07T10:11:14;3.90;99.90
63966;DHT22;50151;52.030;5.350;2022-12-07T10:13:45;4.00;99.90
63966;DHT22;50151;52.030;5.350;2022-12-07T10:18:54;4.10;99.90
63966;DHT22;50151;52.030;5.350;2022-12-07T10:21:23;4.20;99.90
63966;DHT22;50151;52.030;5.350;2022-12-07T10:24:14;4.20;99.90
63966;DHT22;50151;52.030;5.350;2022-12-07T10:26:49;4.30;99.90
63966;DHT22;50151;52.030;5.350;2022-12-07T10:29:34;4.40;99.90
63966;DHT22;50151;52.030;5.350;2022-12-07T10:32:26;4.40;99.90
63966;DHT22;50151;52.030;5.350;2022-12-07T10:35:20;4.50;99.90
63966;DHT22;50151;52.030;5.350;2022-12-07T10:37:48;4.60;99.90
63966;DHT22;50151;52.030;5.350;2022-12-07T10:40:29;4.70;99.90
63966;DHT22;50151;52.030;5.350;2022-12-07T10:57:52;4.90;99.90
63966;DHT22;50151;52.030;5.350;2022-12-07T11:00:25;5.10;99.90
63966;DHT22;50151;52.030;5.350;2022-12-07T11:11:20;5.40;99.90
63966;DHT22;50151;52.030;5.350;2022-12-07T11:14:01;5.40;99.90
63966;DHT22;50151;52.030;5.350;2022-12-07T11:22:36;5.50;99.90
63966;DHT22;50151;52.030;5.350;2022-12-07T11:25:31;5.50;99.90
63966;DHT22;50151;52.030;5.350;2022-12-07T11:30:57;5.50;99.90
63966;DHT22;50151;52.030;5.350;2022-12-07T11:33:38;5.60;99.90
63966;DHT22;50151;52.030;5.350;2022-12-07T11:36:41;5.60;99.90
63966;DHT22;50151;52.030;5.350;2022-12-07T11:41:48;5.60;99.90
63966;DHT22;50151;52.030;5.350;2022-12-07T11:44:38;5.50;99.90
63966;DHT22;50151;52.030;5.350;2022-12-07T11:47:18;5.50;99.90
63966;DHT22;50151;52.030;5.350;2022-12-07T11:52:22;5.60;99.90
63966;DHT22;50151;52.030;5.350;2022-12-07T11:54:52;5.80;99.90
63966;DHT22;50151;52.030;5.350;2022-12-07T11:57:37;6.00;99.90
63966;DHT22;50151;52.030;5.350;2022-12-07T12:00:12;6.20;99.90
63966;DHT22;50151;52.030;5.350;2022-12-07T12:02:52;6.20;99.90
63966;DHT22;50151;52.030;5.350;2022-12-07T12:05:22;6.20;99.90
63966;DHT22;50151;52.030;5.350;2022-12-07T12:08:02;6.40;99.90
63966;DHT22;50151;52.030;5.350;2022-12-07T12:22:44;6.40;99.90
63966;DHT22;50151;52.030;5.350;2022-12-07T12:25:21;6.40;99.90
63966;DHT22;50151;52.030;5.350;2022-12-07T12:27:50;6.60;99.90
63966;DHT22;50151;52.030;5.350;2022-12-07T12:30:44;6.80;99.90
63966;DHT22;50151;52.030;5.350;2022-12-07T12:33:16;7.10;99.90
63966;DHT22;50151;52.030;5.350;2022-12-07T12:35:43;7.20;99.90
63966;DHT22;50151;52.030;5.350;2022-12-07T12:38:29;7.20;99.90
63966;DHT22;50151;52.030;5.350;2022-12-07T12:41:00;7.50;99.90
63966;DHT22;50151;52.030;5.350;2022-12-07T12:43:43;7.50;99.90
63966;DHT22;50151;52.030;5.350;2022-12-07T12:51:52;6.90;99.90
63966;DHT22;50151;52.030;5.350;2022-12-07T12:54:27;7.00;99.90
63966;DHT22;50151;52.030;5.350;2022-12-07T12:59:42;7.20;99.90
63966;DHT22;50151;52.030;5.350;2022-12-07T13:02:21;7.40;99.90
63966;DHT22;50151;52.030;5.350;2022-12-07T13:05:00;7.90;99.90
63966;DHT22;50151;52.030;5.350;2022-12-07T13:07:49;7.90;99.90
63966;DHT22;50151;52.030;5.350;2022-12-07T13:15:39;7.40;99.90
63966;DHT22;50151;52.030;5.350;2022-12-07T13:20:58;7.30;99.90
63966;DHT22;50151;52.030;5.350;2022-12-07T13:26:19;7.20;99.90
63966;DHT22;50151;52.030;5.350;2022-12-07T13:31:43;7.10;99.90
63966;DHT22;50151;52.030;5.350;2022-12-07T13:34:40;7.10;99.90
63966;DHT22;50151;52.030;5.350;2022-12-07T13:37:15;7.10;99.90
63966;DHT22;50151;52.030;5.350;2022-12-07T13:39:53;7.10;99.90
63966;DHT22;50151;52.030;5.350;2022-12-07T13:42:29;7.10;99.90
63966;DHT22;50151;52.030;5.350;2022-12-07T13:44:58;7.10;99.90
63966;DHT22;50151;52.030;5.350;2022-12-07T13:49:58;7.40;99.90
63966;DHT22;50151;52.030;5.350;2022-12-07T13:52:29;7.80;99.90
63966;DHT22;50151;52.030;5.350;2022-12-07T13:57:35;7.80;99.90
63966;DHT22;50151;52.030;5.350;2022-12-07T14:00:13;7.80;99.90
63966;DHT22;50151;52.030;5.350;2022-12-07T14:05:39;7.60;99.90
63966;DHT22;50151;52.030;5.350;2022-12-07T14:10:41;7.30;99.90
63966;DHT22;50151;52.030;5.350;2022-12-07T14:13:30;7.10;99.90
63966;DHT22;50151;52.030;5.350;2022-12-07T14:15:58;7.30;99.90
63966;DHT22;50151;52.030;5.350;2022-12-07T14:18:46;7.20;99.90
63966;DHT22;50151;52.030;5.350;2022-12-07T14:23:40;7.00;99.90
63966;DHT22;50151;52.030;5.350;2022-12-07T14:26:28;6.90;99.90
63966;DHT22;50151;52.030;5.350;2022-12-07T14:29:18;6.90;99.90
63966;DHT22;50151;52.030;5.350;2022-12-07T14:31:45;6.80;99.90
63966;DHT22;50151;52.030;5.350;2022-12-07T14:34:13;6.60;99.90
63966;DHT22;50151;52.030;5.350;2022-12-07T14:36:39;6.50;99.90
63966;DHT22;50151;52.030;5.350;2022-12-07T14:39:06;6.60;99.90
63966;DHT22;50151;52.030;5.350;2022-12-07T14:41:39;6.50;99.90
63966;DHT22;50151;52.030;5.350;2022-12-07T14:44:23;6.40;99.90
63966;DHT22;50151;52.030;5.350;2022-12-07T14:46:57;6.40;99.90
63966;DHT22;50151;52.030;5.350;2022-12-07T14:49:44;6.40;99.90
63966;DHT22;50151;52.030;5.350;2022-12-07T14:52:27;6.30;99.90
63966;DHT22;50151;52.030;5.350;2022-12-07T14:55:27;6.30;99.90
63966;DHT22;50151;52.030;5.350;2022-12-07T14:57:55;6.30;99.90
63966;DHT22;50151;52.030;5.350;2022-12-07T15:00:24;6.40;99.90
63966;DHT22;50151;52.030;5.350;2022-12-07T15:02:51;6.30;99.90
63966;DHT22;50151;52.030;5.350;2022-12-07T15:05:18;6.30;99.90
63966;DHT22;50151;52.030;5.350;2022-12-07T15:07:46;6.20;99.90
63966;DHT22;50151;52.030;5.350;2022-12-07T15:10:20;6.10;99.90
63966;DHT22;50151;52.030;5.350;2022-12-07T15:12:50;6.10;99.90
63966;DHT22;50151;52.030;5.350;2022-12-07T15:15:17;6.10;99.90
63966;DHT22;50151;52.030;5.350;2022-12-07T15:17:44;6.00;99.90
63966;DHT22;50151;52.030;5.350;2022-12-07T15:20:15;6.00;99.90
63966;DHT22;50151;52.030;5.350;2022-12-07T15:22:43;5.90;99.90
63966;DHT22;50151;52.030;5.350;2022-12-07T15:25:13;5.80;99.90
63966;DHT22;50151;52.030;5.350;2022-12-07T15:27:40;5.70;99.90
63966;DHT22;50151;52.030;5.350;2022-12-07T15:30:07;5.70;99.90
63966;DHT22;50151;52.030;5.350;2022-12-07T15:32:34;5.60;99.90
63966;DHT22;50151;52.030;5.350;2022-12-07T15:35:01;5.70;99.90
63966;DHT22;50151;52.030;5.350;2022-12-07T15:37:28;5.60;99.90
63966;DHT22;50151;52.030;5.350;2022-12-07T15:39:55;5.60;99.90
63966;DHT22;50151;52.030;5.350;2022-12-07T15:42:22;5.60;99.90
63966;DHT22;50151;52.030;5.350;2022-12-07T15:44:48;5.40;99.90
63966;DHT22;50151;52.030;5.350;2022-12-07T15:47:42;5.50;99.90
63966;DHT22;50151;52.030;5.350;2022-12-07T15:50:29;5.50;99.90
63966;DHT22;50151;52.030;5.350;2022-12-07T15:52:56;5.50;99.90
63966;DHT22;50151;52.030;5.350;2022-12-07T15:55:23;5.40;99.90
63966;DHT22;50151;52.030;5.350;2022-12-07T15:57:49;5.40;99.90
63966;DHT22;50151;52.030;5.350;2022-12-07T16:00:16;5.40;99.90
63966;DHT22;50151;52.030;5.350;2022-12-07T16:02:46;5.40;99.90
63966;DHT22;50151;52.030;5.350;2022-12-07T16:05:12;5.20;99.90
63966;DHT22;50151;52.030;5.350;2022-12-07T16:07:39;5.30;99.90
63966;DHT22;50151;52.030;5.350;2022-12-07T16:10:10;5.30;99.90
63966;DHT22;50151;52.030;5.350;2022-12-07T16:12:37;5.30;99.90
63966;DHT22;50151;52.030;5.350;2022-12-07T16:15:04;5.20;99.90
63966;DHT22;50151;52.030;5.350;2022-12-07T16:17:31;5.20;99.90
63966;DHT22;50151;52.030;5.350;2022-12-07T16:19:58;5.10;99.90
63966;DHT22;50151;52.030;5.350;2022-12-07T16:22:25;5.00;99.90
63966;DHT22;50151;52.030;5.350;2022-12-07T16:24:51;5.10;99.90
63966;DHT22;50151;52.030;5.350;2022-12-07T16:27:18;5.10;99.90
63966;DHT22;50151;52.030;5.350;2022-12-07T16:29:45;5.00;99.90
63966;DHT22;50151;52.030;5.350;2022-12-07T16:32:11;5.10;99.90
63966;DHT22;50151;52.030;5.350;2022-12-07T16:34:39;5.00;99.90
63966;DHT22;50151;52.030;5.350;2022-12-07T16:37:06;5.00;99.90
63966;DHT22;50151;52.030;5.350;2022-12-07T16:39:33;5.00;99.90
63966;DHT22;50151;52.030;5.350;2022-12-07T16:42:00;5.00;99.90
63966;DHT22;50151;52.030;5.350;2022-12-07T16:44:27;5.00;99.90
63966;DHT22;50151;52.030;5.350;2022-12-07T16:46:54;5.00;99.90
63966;DHT22;50151;52.030;5.350;2022-12-07T16:49:21;4.90;99.90
63966;DHT22;50151;52.030;5.350;2022-12-07T16:51:50;5.00;99.90
63966;DHT22;50151;52.030;5.350;2022-12-07T16:54:37;5.00;99.90
63966;DHT22;50151;52.030;5.350;2022-12-07T16:57:04;4.90;99.90
63966;DHT22;50151;52.030;5.350;2022-12-07T16:59:30;4.90;99.90
63966;DHT22;50151;52.030;5.350;2022-12-07T17:01:57;4.90;99.90
63966;DHT22;50151;52.030;5.350;2022-12-07T17:04:24;4.90;99.90
63966;DHT22;50151;52.030;5.350;2022-12-07T17:06:51;4.90;99.90
63966;DHT22;50151;52.030;5.350;2022-12-07T17:09:17;4.80;99.90
63966;DHT22;50151;52.030;5.350;2022-12-07T17:11:47;4.80;99.90
63966;DHT22;50151;52.030;5.350;2022-12-07T17:14:14;4.80;99.90
63966;DHT22;50151;52.030;5.350;2022-12-07T17:16:59;4.80;99.90
63966;DHT22;50151;52.030;5.350;2022-12-07T17:19:26;4.70;99.90
63966;DHT22;50151;52.030;5.350;2022-12-07T17:21:53;4.70;99.90
63966;DHT22;50151;52.030;5.350;2022-12-07T17:24:20;4.70;99.90
63966;DHT22;50151;52.030;5.350;2022-12-07T17:26:47;4.80;99.90
63966;DHT22;50151;52.030;5.350;2022-12-07T17:29:16;4.70;99.90
63966;DHT22;50151;52.030;5.350;2022-12-07T17:31:44;4.70;99.90
63966;DHT22;50151;52.030;5.350;2022-12-07T17:34:18;4.70;99.90
63966;DHT22;50151;52.030;5.350;2022-12-07T17:36:44;4.70;99.90
63966;DHT22;50151;52.030;5.350;2022-12-07T17:39:16;4.60;99.90
63966;DHT22;50151;52.030;5.350;2022-12-07T17:41:44;4.60;99.90
63966;DHT22;50151;52.030;5.350;2022-12-07T17:44:29;4.60;99.90
63966;DHT22;50151;52.030;5.350;2022-12-07T17:46:57;4.60;99.90
63966;DHT22;50151;52.030;5.350;2022-12-07T17:49:25;4.60;99.90
63966;DHT22;50151;52.030;5.350;2022-12-07T17:51:53;4.60;99.90
63966;DHT22;50151;52.030;5.350;2022-12-07T17:54:39;4.60;99.90
63966;DHT22;50151;52.030;5.350;2022-12-07T17:57:05;4.60;99.90
63966;DHT22;50151;52.030;5.350;2022-12-07T17:59:32;4.60;99.90
63966;DHT22;50151;52.030;5.350;2022-12-07T18:01:59;4.50;99.90